ITY7875 ENGM-EGPF
Flight info
| Callsign | ITY7875 |
|---|---|
| Flight time | 1h 46m |
| Altitude | 36000 |
| Route | ATLAP DCT IPMOD DCT RIGVU DCT ADN/N0430F240 P600 PTH |
| Aircraft | A320/M-SDE3FGHIRWY/LB1 |
Departure
| Time | 2026-05-05 13:13 |
|---|---|
| Airport | Oslo-Gardermoen International Airport (ENGM) |
Arrival
| Time | 2026-05-05 14:59 |
|---|---|
| Airport | Glasgow Airport (EGPF) |
| Time | Latitude | Longitude | Altitude | Speed | Heading |
|---|---|---|---|---|---|
| 2026-05-05 12:51 | 60.19442 | 11.10353 | 691 ft | 0 kts | 196° |
| 2026-05-05 13:00 | 60.19444 | 11.10354 | 691 ft | 2 kts | 196° |
| 2026-05-05 13:01 | 60.19517 | 11.10414 | 690 ft | 4 kts | 221° |
| 2026-05-05 13:01 | 60.19530 | 11.10451 | 682 ft | 3 kts | 279° |
| 2026-05-05 13:01 | 60.19530 | 11.10458 | 685 ft | 0 kts | 286° |
| 2026-05-05 13:03 | 60.19532 | 11.10441 | 682 ft | 4 kts | 286° |
| 2026-05-05 13:03 | 60.19578 | 11.10400 | 690 ft | 12 kts | 7° |
| 2026-05-05 13:04 | 60.19687 | 11.10461 | 691 ft | 18 kts | 15° |
| 2026-05-05 13:04 | 60.19801 | 11.10524 | 688 ft | 13 kts | 16° |
| 2026-05-05 13:04 | 60.19828 | 11.10540 | 691 ft | 0 kts | 15° |
| 2026-05-05 13:05 | 60.19863 | 11.10553 | 691 ft | 12 kts | 359° |
| 2026-05-05 13:05 | 60.19925 | 11.10330 | 687 ft | 24 kts | 285° |
| 2026-05-05 13:05 | 60.19972 | 11.09994 | 687 ft | 25 kts | 286° |
| 2026-05-05 13:06 | 60.20022 | 11.09646 | 691 ft | 27 kts | 286° |
| 2026-05-05 13:06 | 60.20075 | 11.09275 | 682 ft | 28 kts | 286° |
| 2026-05-05 13:06 | 60.20117 | 11.08921 | 682 ft | 19 kts | 258° |
| 2026-05-05 13:06 | 60.19984 | 11.08793 | 680 ft | 26 kts | 196° |
| 2026-05-05 13:07 | 60.19799 | 11.08683 | 682 ft | 29 kts | 196° |
| 2026-05-05 13:07 | 60.19604 | 11.08571 | 681 ft | 30 kts | 196° |
| 2026-05-05 13:07 | 60.19399 | 11.08454 | 684 ft | 31 kts | 196° |
| 2026-05-05 13:07 | 60.19190 | 11.08334 | 679 ft | 31 kts | 196° |
| 2026-05-05 13:08 | 60.18976 | 11.08209 | 678 ft | 33 kts | 196° |
| 2026-05-05 13:08 | 60.18765 | 11.08087 | 680 ft | 27 kts | 196° |
| 2026-05-05 13:08 | 60.18570 | 11.07974 | 676 ft | 30 kts | 195° |
| 2026-05-05 13:08 | 60.18389 | 11.07869 | 678 ft | 21 kts | 198° |
| 2026-05-05 13:09 | 60.18355 | 11.07717 | 680 ft | 3 kts | 287° |
| 2026-05-05 13:09 | 60.18355 | 11.07716 | 680 ft | 0 kts | 287° |
| 2026-05-05 13:09 | 60.18357 | 11.07706 | 677 ft | 4 kts | 290° |
| 2026-05-05 13:10 | 60.18408 | 11.07613 | 679 ft | 9 kts | 324° |
| 2026-05-05 13:10 | 60.18414 | 11.07604 | 679 ft | 0 kts | 324° |
| 2026-05-05 13:11 | 60.18414 | 11.07603 | 679 ft | 1 kts | 324° |
| 2026-05-05 13:11 | 60.18451 | 11.07549 | 681 ft | 11 kts | 323° |
| 2026-05-05 13:12 | 60.18533 | 11.07436 | 681 ft | 18 kts | 334° |
| 2026-05-05 13:12 | 60.18597 | 11.07426 | 681 ft | 0 kts | 15° |
| 2026-05-05 13:12 | 60.18607 | 11.07432 | 681 ft | 8 kts | 15° |
| 2026-05-05 13:12 | 60.18883 | 11.07591 | 681 ft | 78 kts | 16° |
| 2026-05-05 13:13 | 60.19616 | 11.08015 | 682 ft | 138 kts | 16° |
| 2026-05-05 13:13 | 60.20667 | 11.08638 | 883 ft | 165 kts | 16° |
| 2026-05-05 13:13 | 60.21784 | 11.09278 | 1533 ft | 168 kts | 12° |
| 2026-05-05 13:13 | 60.22921 | 11.09919 | 2197 ft | 174 kts | 11° |
| 2026-05-05 13:14 | 60.24160 | 11.10611 | 2553 ft | 196 kts | 10° |
| 2026-05-05 13:14 | 60.25534 | 11.11278 | 2891 ft | 214 kts | 1° |
| 2026-05-05 13:14 | 60.27081 | 11.11080 | 3238 ft | 235 kts | 348° |
| 2026-05-05 13:14 | 60.28755 | 11.10534 | 3895 ft | 249 kts | 345° |
| 2026-05-05 13:15 | 60.30270 | 11.08971 | 4742 ft | 248 kts | 311° |
| 2026-05-05 13:15 | 60.31018 | 11.05882 | 5588 ft | 251 kts | 276° |
| 2026-05-05 13:15 | 60.30808 | 11.02380 | 6478 ft | 255 kts | 258° |
| 2026-05-05 13:15 | 60.30577 | 10.98823 | 7292 ft | 257 kts | 272° |
| 2026-05-05 13:16 | 60.30655 | 10.95214 | 8186 ft | 258 kts | 276° |
| 2026-05-05 13:16 | 60.30946 | 10.91625 | 9039 ft | 261 kts | 282° |
| 2026-05-05 13:16 | 60.31369 | 10.88072 | 9857 ft | 265 kts | 284° |
| 2026-05-05 13:16 | 60.31690 | 10.84333 | 10280 ft | 282 kts | 267° |
| 2026-05-05 13:17 | 60.31093 | 10.80413 | 10517 ft | 306 kts | 242° |
| 2026-05-05 13:17 | 60.29732 | 10.76995 | 11047 ft | 320 kts | 226° |
| 2026-05-05 13:17 | 60.27904 | 10.74318 | 11735 ft | 329 kts | 215° |
| 2026-05-05 13:17 | 60.25946 | 10.71882 | 12477 ft | 333 kts | 216° |
| 2026-05-05 13:18 | 60.23975 | 10.69390 | 13222 ft | 336 kts | 216° |
| 2026-05-05 13:18 | 60.21987 | 10.66862 | 13899 ft | 340 kts | 216° |
| 2026-05-05 13:18 | 60.20035 | 10.64298 | 14587 ft | 339 kts | 222° |
| 2026-05-05 13:18 | 60.18361 | 10.61060 | 15312 ft | 332 kts | 236° |
| 2026-05-05 13:19 | 60.17141 | 10.57190 | 16084 ft | 326 kts | 248° |
| 2026-05-05 13:19 | 60.16414 | 10.52928 | 16862 ft | 321 kts | 260° |
| 2026-05-05 13:19 | 60.16179 | 10.48500 | 17624 ft | 318 kts | 268° |
| 2026-05-05 13:19 | 60.16093 | 10.44069 | 18368 ft | 317 kts | 268° |
| 2026-05-05 13:20 | 60.16007 | 10.39657 | 19029 ft | 316 kts | 268° |
| 2026-05-05 13:20 | 60.15919 | 10.35255 | 19722 ft | 315 kts | 268° |
| 2026-05-05 13:20 | 60.15826 | 10.30885 | 20441 ft | 313 kts | 267° |
| 2026-05-05 13:20 | 60.15730 | 10.26591 | 21148 ft | 311 kts | 267° |
| 2026-05-05 13:21 | 60.15632 | 10.22273 | 21845 ft | 309 kts | 267° |
| 2026-05-05 13:21 | 60.15534 | 10.17973 | 22517 ft | 308 kts | 266° |
| 2026-05-05 13:21 | 60.15433 | 10.13682 | 23136 ft | 307 kts | 267° |
| 2026-05-05 13:21 | 60.15332 | 10.09412 | 23703 ft | 306 kts | 266° |
| 2026-05-05 13:22 | 60.15227 | 10.05128 | 24128 ft | 307 kts | 266° |
| 2026-05-05 13:22 | 60.15122 | 10.00829 | 24495 ft | 311 kts | 267° |
| 2026-05-05 13:22 | 60.15013 | 9.96457 | 24779 ft | 315 kts | 267° |
| 2026-05-05 13:22 | 60.14904 | 9.92104 | 25153 ft | 317 kts | 267° |
| 2026-05-05 13:23 | 60.14795 | 9.87662 | 25511 ft | 320 kts | 267° |
| 2026-05-05 13:23 | 60.14657 | 9.83190 | 25868 ft | 322 kts | 263° |
| 2026-05-05 13:23 | 60.14147 | 9.78794 | 26241 ft | 327 kts | 254° |
| 2026-05-05 13:23 | 60.13188 | 9.74615 | 26597 ft | 333 kts | 248° |
| 2026-05-05 13:24 | 60.12108 | 9.70499 | 26947 ft | 335 kts | 248° |
| 2026-05-05 13:24 | 60.11015 | 9.66349 | 27290 ft | 337 kts | 247° |
| 2026-05-05 13:24 | 60.09919 | 9.62200 | 27571 ft | 337 kts | 248° |
| 2026-05-05 13:24 | 60.08821 | 9.58044 | 27961 ft | 337 kts | 248° |
| 2026-05-05 13:25 | 60.07722 | 9.53880 | 28305 ft | 339 kts | 248° |
| 2026-05-05 13:25 | 60.06631 | 9.49742 | 28618 ft | 341 kts | 248° |
| 2026-05-05 13:25 | 60.05518 | 9.45531 | 28895 ft | 343 kts | 248° |
| 2026-05-05 13:25 | 60.04397 | 9.41305 | 29154 ft | 345 kts | 248° |
| 2026-05-05 13:26 | 60.03263 | 9.37046 | 29416 ft | 347 kts | 248° |
| 2026-05-05 13:26 | 60.02121 | 9.32779 | 29662 ft | 349 kts | 248° |
| 2026-05-05 13:26 | 60.00972 | 9.28485 | 29973 ft | 352 kts | 248° |
| 2026-05-05 13:26 | 59.99815 | 9.24163 | 30169 ft | 353 kts | 248° |
| 2026-05-05 13:27 | 59.98651 | 9.19825 | 30332 ft | 356 kts | 248° |
| 2026-05-05 13:27 | 59.97493 | 9.15514 | 30545 ft | 358 kts | 247° |
| 2026-05-05 13:27 | 59.96308 | 9.11120 | 30724 ft | 361 kts | 247° |
| 2026-05-05 13:27 | 59.95114 | 9.06697 | 30904 ft | 363 kts | 247° |
| 2026-05-05 13:28 | 59.93915 | 9.02256 | 31131 ft | 364 kts | 247° |
| 2026-05-05 13:28 | 59.92712 | 8.97810 | 31389 ft | 365 kts | 247° |
| 2026-05-05 13:28 | 59.91504 | 8.93357 | 31626 ft | 366 kts | 247° |
| 2026-05-05 13:28 | 59.90287 | 8.88885 | 31837 ft | 368 kts | 246° |
| 2026-05-05 13:29 | 59.89062 | 8.84398 | 32008 ft | 369 kts | 246° |
| 2026-05-05 13:29 | 59.87833 | 8.79904 | 32183 ft | 370 kts | 246° |
| 2026-05-05 13:29 | 59.86618 | 8.75466 | 32424 ft | 371 kts | 246° |
| 2026-05-05 13:29 | 59.85383 | 8.70956 | 32691 ft | 372 kts | 246° |
| 2026-05-05 13:30 | 59.84140 | 8.66430 | 32918 ft | 373 kts | 246° |
| 2026-05-05 13:30 | 59.82896 | 8.61915 | 33161 ft | 373 kts | 246° |
| 2026-05-05 13:30 | 59.81647 | 8.57385 | 33401 ft | 374 kts | 246° |
| 2026-05-05 13:30 | 59.80393 | 8.52838 | 33600 ft | 375 kts | 246° |
| 2026-05-05 13:31 | 59.79138 | 8.48302 | 33864 ft | 375 kts | 245° |
| 2026-05-05 13:31 | 59.77877 | 8.43758 | 34064 ft | 376 kts | 245° |
| 2026-05-05 13:31 | 59.76628 | 8.39272 | 34274 ft | 377 kts | 245° |
| 2026-05-05 13:31 | 59.75356 | 8.34713 | 34473 ft | 378 kts | 245° |
| 2026-05-05 13:32 | 59.74160 | 8.30088 | 34643 ft | 376 kts | 251° |
| 2026-05-05 13:32 | 59.73365 | 8.25168 | 34819 ft | 374 kts | 258° |
| 2026-05-05 13:32 | 59.72735 | 8.20157 | 34979 ft | 375 kts | 258° |
| 2026-05-05 13:32 | 59.72097 | 8.15140 | 35147 ft | 377 kts | 257° |
| 2026-05-05 13:33 | 59.71452 | 8.10105 | 35328 ft | 377 kts | 257° |
| 2026-05-05 13:33 | 59.70811 | 8.05117 | 35490 ft | 378 kts | 257° |
| 2026-05-05 13:33 | 59.70152 | 7.99995 | 35644 ft | 379 kts | 257° |
| 2026-05-05 13:33 | 59.69507 | 7.95005 | 35797 ft | 380 kts | 257° |
| 2026-05-05 13:34 | 59.68845 | 7.89930 | 35939 ft | 381 kts | 257° |
| 2026-05-05 13:34 | 59.68182 | 7.84855 | 35978 ft | 381 kts | 257° |
| 2026-05-05 13:34 | 59.66846 | 7.74640 | 36001 ft | 385 kts | 257° |
| 2026-05-05 13:35 | 59.65499 | 7.64441 | 35993 ft | 386 kts | 257° |
| 2026-05-05 13:35 | 59.64134 | 7.54184 | 36004 ft | 386 kts | 257° |
| 2026-05-05 13:36 | 59.62764 | 7.43924 | 36007 ft | 386 kts | 257° |
| 2026-05-05 13:36 | 59.61387 | 7.33676 | 36004 ft | 386 kts | 257° |
| 2026-05-05 13:37 | 59.60001 | 7.23456 | 36009 ft | 386 kts | 256° |
| 2026-05-05 13:37 | 59.58610 | 7.13297 | 35991 ft | 386 kts | 256° |
| 2026-05-05 13:38 | 59.57206 | 7.03040 | 35981 ft | 388 kts | 256° |
| 2026-05-05 13:38 | 59.55791 | 6.92766 | 35982 ft | 389 kts | 256° |
| 2026-05-05 13:39 | 59.54358 | 6.82471 | 35989 ft | 390 kts | 256° |
| 2026-05-05 13:39 | 59.52923 | 6.72245 | 35989 ft | 390 kts | 256° |
| 2026-05-05 13:40 | 59.51469 | 6.61938 | 35990 ft | 390 kts | 256° |
| 2026-05-05 13:40 | 59.50011 | 6.51644 | 35993 ft | 390 kts | 256° |
| 2026-05-05 13:41 | 59.48544 | 6.41359 | 36027 ft | 390 kts | 256° |
| 2026-05-05 13:41 | 59.47071 | 6.31097 | 36028 ft | 390 kts | 256° |
| 2026-05-05 13:42 | 59.45601 | 6.20922 | 36027 ft | 389 kts | 256° |
| 2026-05-05 13:42 | 59.44112 | 6.10691 | 35982 ft | 389 kts | 256° |
| 2026-05-05 13:43 | 59.42615 | 6.00458 | 35999 ft | 390 kts | 256° |
| 2026-05-05 13:43 | 59.41108 | 5.90222 | 36014 ft | 390 kts | 256° |
| 2026-05-05 13:44 | 59.39607 | 5.80062 | 36019 ft | 390 kts | 256° |
| 2026-05-05 13:44 | 59.38081 | 5.69835 | 36022 ft | 390 kts | 256° |
| 2026-05-05 13:45 | 59.36545 | 5.59623 | 36025 ft | 390 kts | 256° |
| 2026-05-05 13:45 | 59.35007 | 5.49418 | 36030 ft | 390 kts | 256° |
| 2026-05-05 13:46 | 59.33472 | 5.39288 | 36036 ft | 391 kts | 255° |
| 2026-05-05 13:46 | 59.31912 | 5.29093 | 36036 ft | 391 kts | 255° |
| 2026-05-05 13:47 | 59.30343 | 5.18918 | 36036 ft | 391 kts | 255° |
| 2026-05-05 13:47 | 59.28771 | 5.08729 | 36045 ft | 391 kts | 255° |
| 2026-05-05 13:48 | 59.27194 | 4.98564 | 36045 ft | 391 kts | 255° |
| 2026-05-05 13:48 | 59.25613 | 4.88482 | 36046 ft | 391 kts | 255° |
| 2026-05-05 13:49 | 59.24017 | 4.78334 | 36046 ft | 390 kts | 255° |
| 2026-05-05 13:49 | 59.22417 | 4.68198 | 36003 ft | 390 kts | 255° |
| 2026-05-05 13:50 | 59.20805 | 4.58083 | 36019 ft | 391 kts | 255° |
| 2026-05-05 13:50 | 59.19182 | 4.47964 | 36028 ft | 391 kts | 255° |
| 2026-05-05 13:51 | 59.17563 | 4.37912 | 36033 ft | 391 kts | 255° |
| 2026-05-05 13:51 | 59.15926 | 4.27799 | 36042 ft | 392 kts | 255° |
| 2026-05-05 13:52 | 59.14273 | 4.17683 | 36046 ft | 392 kts | 255° |
| 2026-05-05 13:52 | 59.12614 | 4.07580 | 36047 ft | 392 kts | 255° |
| 2026-05-05 13:53 | 59.10963 | 3.97549 | 36050 ft | 392 kts | 255° |
| 2026-05-05 13:53 | 59.09298 | 3.87459 | 36046 ft | 392 kts | 255° |
| 2026-05-05 13:54 | 59.07617 | 3.77383 | 36052 ft | 392 kts | 255° |
| 2026-05-05 13:54 | 59.05932 | 3.67310 | 36051 ft | 392 kts | 255° |
| 2026-05-05 13:55 | 59.04249 | 3.57310 | 36055 ft | 392 kts | 254° |
| 2026-05-05 13:55 | 59.02537 | 3.47258 | 36059 ft | 392 kts | 254° |
| 2026-05-05 13:56 | 59.00822 | 3.37217 | 36057 ft | 392 kts | 254° |
| 2026-05-05 13:56 | 58.99105 | 3.27173 | 36050 ft | 392 kts | 254° |
| 2026-05-05 13:57 | 58.97379 | 3.17135 | 36028 ft | 392 kts | 254° |
| 2026-05-05 13:57 | 58.95657 | 3.07170 | 36039 ft | 393 kts | 254° |
| 2026-05-05 13:58 | 58.93910 | 2.97136 | 36054 ft | 393 kts | 254° |
| 2026-05-05 13:58 | 58.92153 | 2.87118 | 36059 ft | 393 kts | 253° |
| 2026-05-05 13:59 | 58.89506 | 2.72099 | 36066 ft | 393 kts | 253° |
| 2026-05-05 14:00 | 58.87139 | 2.58789 | 36068 ft | 393 kts | 253° |
| 2026-05-05 14:00 | 58.85061 | 2.47178 | 36076 ft | 393 kts | 253° |
| 2026-05-05 14:01 | 58.83266 | 2.37217 | 36077 ft | 393 kts | 253° |
| 2026-05-05 14:01 | 58.81472 | 2.27249 | 36076 ft | 393 kts | 253° |
| 2026-05-05 14:02 | 58.79673 | 2.17368 | 36078 ft | 393 kts | 251° |
| 2026-05-05 14:02 | 58.77060 | 2.08030 | 36076 ft | 397 kts | 243° |
| 2026-05-05 14:03 | 58.74243 | 1.98879 | 36077 ft | 397 kts | 243° |
| 2026-05-05 14:03 | 58.71429 | 1.89724 | 36076 ft | 397 kts | 243° |
| 2026-05-05 14:04 | 58.68627 | 1.80652 | 36062 ft | 397 kts | 243° |
| 2026-05-05 14:04 | 58.65807 | 1.71544 | 36067 ft | 397 kts | 243° |
| 2026-05-05 14:05 | 58.62969 | 1.62433 | 36073 ft | 397 kts | 243° |
| 2026-05-05 14:05 | 58.60122 | 1.53344 | 36075 ft | 397 kts | 243° |
| 2026-05-05 14:06 | 58.57272 | 1.44265 | 36083 ft | 397 kts | 243° |
| 2026-05-05 14:06 | 58.54449 | 1.35264 | 36084 ft | 398 kts | 243° |
| 2026-05-05 14:07 | 58.51595 | 1.26209 | 36083 ft | 398 kts | 243° |
| 2026-05-05 14:07 | 58.48722 | 1.17163 | 36081 ft | 398 kts | 242° |
| 2026-05-05 14:08 | 58.45837 | 1.08134 | 36052 ft | 398 kts | 242° |
| 2026-05-05 14:08 | 58.42965 | 0.99171 | 36065 ft | 399 kts | 242° |
| 2026-05-05 14:09 | 58.40068 | 0.90139 | 36074 ft | 399 kts | 242° |
| 2026-05-05 14:09 | 58.37170 | 0.81112 | 36083 ft | 399 kts | 242° |
| 2026-05-05 14:10 | 58.34253 | 0.72120 | 36094 ft | 399 kts | 242° |
| 2026-05-05 14:10 | 58.31351 | 0.63201 | 36096 ft | 399 kts | 242° |
| 2026-05-05 14:11 | 58.28428 | 0.54216 | 36090 ft | 399 kts | 242° |
| 2026-05-05 14:11 | 58.25502 | 0.45244 | 36094 ft | 399 kts | 242° |
| 2026-05-05 14:12 | 58.22562 | 0.36297 | 36093 ft | 400 kts | 242° |
| 2026-05-05 14:12 | 58.19613 | 0.27357 | 36052 ft | 399 kts | 241° |
| 2026-05-05 14:13 | 58.16663 | 0.18437 | 36067 ft | 400 kts | 241° |
| 2026-05-05 14:13 | 58.13717 | 0.09587 | 36074 ft | 400 kts | 241° |
| 2026-05-05 14:14 | 58.10745 | 0.00690 | 36083 ft | 400 kts | 241° |
| 2026-05-05 14:14 | 58.07770 | -0.08226 | 36100 ft | 401 kts | 241° |
| 2026-05-05 14:15 | 58.04788 | -0.17113 | 36099 ft | 401 kts | 241° |
| 2026-05-05 14:15 | 58.01816 | -0.25929 | 36100 ft | 401 kts | 241° |
| 2026-05-05 14:16 | 57.98815 | -0.34779 | 36104 ft | 401 kts | 240° |
| 2026-05-05 14:16 | 57.95811 | -0.43613 | 36101 ft | 400 kts | 240° |
| 2026-05-05 14:17 | 57.92801 | -0.52432 | 36103 ft | 400 kts | 240° |
| 2026-05-05 14:17 | 57.89803 | -0.61189 | 36070 ft | 401 kts | 240° |
| 2026-05-05 14:18 | 57.86784 | -0.69995 | 36083 ft | 401 kts | 240° |
| 2026-05-05 14:18 | 57.83753 | -0.78796 | 36089 ft | 402 kts | 240° |
| 2026-05-05 14:19 | 57.80710 | -0.87585 | 36095 ft | 402 kts | 240° |
| 2026-05-05 14:19 | 57.77669 | -0.96358 | 36098 ft | 402 kts | 240° |
| 2026-05-05 14:20 | 57.74634 | -1.05064 | 36101 ft | 402 kts | 240° |
| 2026-05-05 14:20 | 57.71567 | -1.13803 | 36101 ft | 401 kts | 240° |
| 2026-05-05 14:21 | 57.68498 | -1.22521 | 36102 ft | 401 kts | 240° |
| 2026-05-05 14:21 | 57.65429 | -1.31241 | 36102 ft | 402 kts | 240° |
| 2026-05-05 14:22 | 57.62367 | -1.39909 | 36089 ft | 404 kts | 239° |
| 2026-05-05 14:22 | 57.59270 | -1.48661 | 36103 ft | 405 kts | 239° |
| 2026-05-05 14:23 | 57.56161 | -1.57400 | 36104 ft | 405 kts | 239° |
| 2026-05-05 14:23 | 57.53039 | -1.66117 | 36108 ft | 405 kts | 239° |
| 2026-05-05 14:24 | 57.49916 | -1.74822 | 36117 ft | 405 kts | 239° |
| 2026-05-05 14:24 | 57.46778 | -1.83520 | 36113 ft | 405 kts | 239° |
| 2026-05-05 14:25 | 57.43658 | -1.92136 | 36114 ft | 405 kts | 239° |
| 2026-05-05 14:25 | 57.40513 | -2.00802 | 36101 ft | 405 kts | 239° |
| 2026-05-05 14:26 | 57.37358 | -2.09461 | 36105 ft | 405 kts | 239° |
| 2026-05-05 14:26 | 57.34202 | -2.18101 | 36079 ft | 405 kts | 238° |
| 2026-05-05 14:27 | 57.30841 | -2.26410 | 36075 ft | 409 kts | 228° |
| 2026-05-05 14:27 | 57.28665 | -2.29864 | 35955 ft | 415 kts | 220° |
| 2026-05-05 14:27 | 57.26293 | -2.33002 | 34859 ft | 426 kts | 219° |
| 2026-05-05 14:28 | 57.23856 | -2.36175 | 33986 ft | 428 kts | 219° |
| 2026-05-05 14:28 | 57.21420 | -2.39318 | 33185 ft | 426 kts | 219° |
| 2026-05-05 14:28 | 57.19004 | -2.42423 | 32491 ft | 422 kts | 219° |
| 2026-05-05 14:28 | 57.16609 | -2.45501 | 31888 ft | 417 kts | 219° |
| 2026-05-05 14:29 | 57.14239 | -2.48549 | 31234 ft | 414 kts | 219° |
| 2026-05-05 14:29 | 57.11933 | -2.51514 | 30723 ft | 407 kts | 219° |
| 2026-05-05 14:29 | 57.09627 | -2.54487 | 30216 ft | 402 kts | 219° |
| 2026-05-05 14:29 | 57.07351 | -2.57417 | 29659 ft | 396 kts | 219° |
| 2026-05-05 14:30 | 57.05113 | -2.60289 | 29201 ft | 389 kts | 219° |
| 2026-05-05 14:30 | 57.02909 | -2.63110 | 28726 ft | 383 kts | 219° |
| 2026-05-05 14:30 | 57.00740 | -2.65887 | 28283 ft | 378 kts | 219° |
| 2026-05-05 14:30 | 56.98595 | -2.68625 | 27845 ft | 372 kts | 219° |
| 2026-05-05 14:31 | 56.96488 | -2.71317 | 27411 ft | 367 kts | 219° |
| 2026-05-05 14:31 | 56.94405 | -2.73977 | 26957 ft | 364 kts | 219° |
| 2026-05-05 14:31 | 56.92360 | -2.76578 | 26490 ft | 361 kts | 219° |
| 2026-05-05 14:31 | 56.90301 | -2.79193 | 26028 ft | 359 kts | 219° |
| 2026-05-05 14:32 | 56.88261 | -2.81779 | 25576 ft | 356 kts | 219° |
| 2026-05-05 14:32 | 56.86231 | -2.84358 | 25093 ft | 354 kts | 219° |
| 2026-05-05 14:32 | 56.84213 | -2.86920 | 24608 ft | 353 kts | 219° |
| 2026-05-05 14:32 | 56.82201 | -2.89473 | 24135 ft | 351 kts | 219° |
| 2026-05-05 14:33 | 56.80192 | -2.92011 | 23604 ft | 351 kts | 218° |
| 2026-05-05 14:33 | 56.78189 | -2.94530 | 23086 ft | 349 kts | 218° |
| 2026-05-05 14:33 | 56.76200 | -2.97030 | 22589 ft | 347 kts | 218° |
| 2026-05-05 14:33 | 56.74245 | -2.99490 | 22106 ft | 345 kts | 218° |
| 2026-05-05 14:34 | 56.72271 | -3.01967 | 21623 ft | 344 kts | 218° |
| 2026-05-05 14:34 | 56.70307 | -3.04421 | 21126 ft | 342 kts | 218° |
| 2026-05-05 14:34 | 56.68344 | -3.06879 | 20632 ft | 341 kts | 218° |
| 2026-05-05 14:34 | 56.66393 | -3.09328 | 20148 ft | 341 kts | 218° |
| 2026-05-05 14:35 | 56.64442 | -3.11772 | 19659 ft | 341 kts | 218° |
| 2026-05-05 14:35 | 56.62490 | -3.14216 | 19173 ft | 340 kts | 218° |
| 2026-05-05 14:35 | 56.60537 | -3.16657 | 18686 ft | 341 kts | 218° |
| 2026-05-05 14:35 | 56.58583 | -3.19099 | 18175 ft | 342 kts | 218° |
| 2026-05-05 14:36 | 56.56652 | -3.21505 | 17686 ft | 341 kts | 218° |
| 2026-05-05 14:36 | 56.54702 | -3.23928 | 17201 ft | 339 kts | 218° |
| 2026-05-05 14:36 | 56.52762 | -3.26334 | 16721 ft | 337 kts | 218° |
| 2026-05-05 14:36 | 56.50828 | -3.28725 | 16275 ft | 336 kts | 218° |
| 2026-05-05 14:37 | 56.48899 | -3.31103 | 15819 ft | 335 kts | 218° |
| 2026-05-05 14:37 | 56.46975 | -3.33475 | 15363 ft | 334 kts | 218° |
| 2026-05-05 14:37 | 56.45062 | -3.35836 | 14915 ft | 333 kts | 218° |
| 2026-05-05 14:37 | 56.43150 | -3.38208 | 14465 ft | 333 kts | 218° |
| 2026-05-05 14:38 | 56.41263 | -3.40619 | 14012 ft | 332 kts | 219° |
| 2026-05-05 14:38 | 56.39385 | -3.43064 | 13526 ft | 332 kts | 219° |
| 2026-05-05 14:38 | 56.37550 | -3.45467 | 13078 ft | 329 kts | 219° |
| 2026-05-05 14:38 | 56.35706 | -3.47884 | 12649 ft | 327 kts | 219° |
| 2026-05-05 14:39 | 56.33871 | -3.50281 | 12177 ft | 325 kts | 219° |
| 2026-05-05 14:39 | 56.32046 | -3.52651 | 11734 ft | 323 kts | 219° |
| 2026-05-05 14:39 | 56.30223 | -3.55002 | 11296 ft | 322 kts | 219° |
| 2026-05-05 14:39 | 56.28408 | -3.57336 | 10839 ft | 321 kts | 219° |
| 2026-05-05 14:40 | 56.26591 | -3.59670 | 10391 ft | 320 kts | 219° |
| 2026-05-05 14:40 | 56.24794 | -3.61968 | 10099 ft | 313 kts | 219° |
| 2026-05-05 14:40 | 56.23076 | -3.64157 | 9969 ft | 301 kts | 220° |
| 2026-05-05 14:40 | 56.21397 | -3.66300 | 9809 ft | 291 kts | 219° |
| 2026-05-05 14:41 | 56.19811 | -3.68489 | 9478 ft | 284 kts | 228° |
| 2026-05-05 14:41 | 56.18556 | -3.71154 | 9114 ft | 277 kts | 237° |
| 2026-05-05 14:41 | 56.17406 | -3.73916 | 8687 ft | 276 kts | 237° |
| 2026-05-05 14:41 | 56.16248 | -3.76653 | 8327 ft | 273 kts | 236° |
| 2026-05-05 14:42 | 56.15117 | -3.79299 | 8190 ft | 262 kts | 235° |
| 2026-05-05 14:42 | 56.14390 | -3.80997 | 8056 ft | 256 kts | 238° |
| 2026-05-05 14:42 | 56.12952 | -3.84302 | 7610 ft | 253 kts | 235° |
| 2026-05-05 14:42 | 56.11807 | -3.86672 | 7259 ft | 251 kts | 231° |
| 2026-05-05 14:43 | 56.10648 | -3.88966 | 7068 ft | 246 kts | 232° |
| 2026-05-05 14:43 | 56.09489 | -3.91233 | 7082 ft | 248 kts | 230° |
| 2026-05-05 14:43 | 56.08716 | -3.92745 | 7083 ft | 248 kts | 232° |
| 2026-05-05 14:43 | 56.07552 | -3.95029 | 7079 ft | 248 kts | 232° |
| 2026-05-05 14:44 | 56.06393 | -3.97309 | 7079 ft | 248 kts | 231° |
| 2026-05-05 14:44 | 56.05227 | -3.99607 | 7080 ft | 248 kts | 231° |
| 2026-05-05 14:44 | 56.04070 | -4.01891 | 7083 ft | 249 kts | 231° |
| 2026-05-05 14:44 | 56.02912 | -4.04187 | 7079 ft | 249 kts | 229° |
| 2026-05-05 14:45 | 56.01370 | -4.07239 | 7080 ft | 250 kts | 229° |
| 2026-05-05 14:45 | 56.00583 | -4.08792 | 7075 ft | 250 kts | 232° |
| 2026-05-05 14:45 | 55.99415 | -4.11095 | 7080 ft | 249 kts | 231° |
| 2026-05-05 14:45 | 55.98265 | -4.13357 | 6987 ft | 249 kts | 231° |
| 2026-05-05 14:46 | 55.97101 | -4.15644 | 6843 ft | 249 kts | 231° |
| 2026-05-05 14:46 | 55.95938 | -4.17934 | 6693 ft | 249 kts | 231° |
| 2026-05-05 14:46 | 55.94778 | -4.20218 | 6545 ft | 249 kts | 230° |
| 2026-05-05 14:46 | 55.93615 | -4.22504 | 6383 ft | 249 kts | 229° |
| 2026-05-05 14:47 | 55.92450 | -4.24790 | 6232 ft | 249 kts | 230° |
| 2026-05-05 14:47 | 55.91287 | -4.27071 | 6077 ft | 248 kts | 230° |
| 2026-05-05 14:47 | 55.90124 | -4.29350 | 5908 ft | 248 kts | 230° |
| 2026-05-05 14:47 | 55.88977 | -4.31594 | 5752 ft | 248 kts | 229° |
| 2026-05-05 14:48 | 55.87815 | -4.33867 | 5594 ft | 248 kts | 229° |
| 2026-05-05 14:48 | 55.86655 | -4.36133 | 5439 ft | 248 kts | 229° |
| 2026-05-05 14:48 | 55.85492 | -4.38402 | 5275 ft | 248 kts | 229° |
| 2026-05-05 14:48 | 55.84328 | -4.40665 | 5130 ft | 248 kts | 228° |
| 2026-05-05 14:49 | 55.83168 | -4.42913 | 4968 ft | 248 kts | 229° |
| 2026-05-05 14:49 | 55.82005 | -4.45171 | 4813 ft | 247 kts | 228° |
| 2026-05-05 14:49 | 55.80850 | -4.47420 | 4650 ft | 244 kts | 228° |
| 2026-05-05 14:49 | 55.79697 | -4.49544 | 4489 ft | 234 kts | 218° |
| 2026-05-05 14:50 | 55.78307 | -4.50816 | 4324 ft | 224 kts | 192° |
| 2026-05-05 14:50 | 55.76799 | -4.51249 | 4164 ft | 216 kts | 192° |
| 2026-05-05 14:50 | 55.75435 | -4.52154 | 4043 ft | 204 kts | 202° |
| 2026-05-05 14:50 | 55.74149 | -4.53099 | 3876 ft | 198 kts | 202° |
| 2026-05-05 14:51 | 55.72880 | -4.54022 | 3705 ft | 196 kts | 201° |
| 2026-05-05 14:51 | 55.71616 | -4.54936 | 3557 ft | 195 kts | 201° |
| 2026-05-05 14:51 | 55.70363 | -4.55838 | 3401 ft | 193 kts | 201° |
| 2026-05-05 14:51 | 55.69120 | -4.56729 | 3249 ft | 196 kts | 202° |
| 2026-05-05 14:52 | 55.67923 | -4.57837 | 3087 ft | 193 kts | 218° |
| 2026-05-05 14:52 | 55.66994 | -4.59535 | 2926 ft | 192 kts | 237° |
| 2026-05-05 14:52 | 55.66418 | -4.61638 | 2791 ft | 190 kts | 256° |
| 2026-05-05 14:52 | 55.66233 | -4.63920 | 2660 ft | 186 kts | 274° |
| 2026-05-05 14:53 | 55.66439 | -4.66153 | 2531 ft | 183 kts | 291° |
| 2026-05-05 14:53 | 55.67003 | -4.68141 | 2418 ft | 180 kts | 308° |
| 2026-05-05 14:53 | 55.67865 | -4.69727 | 2316 ft | 178 kts | 324° |
| 2026-05-05 14:53 | 55.68931 | -4.70783 | 2272 ft | 176 kts | 340° |
| 2026-05-05 14:54 | 55.70119 | -4.71253 | 2276 ft | 178 kts | 360° |
| 2026-05-05 14:54 | 55.71345 | -4.71098 | 2277 ft | 177 kts | 15° |
| 2026-05-05 14:54 | 55.72484 | -4.70317 | 2283 ft | 175 kts | 32° |
| 2026-05-05 14:54 | 55.73404 | -4.68929 | 2287 ft | 175 kts | 47° |
| 2026-05-05 14:55 | 55.74247 | -4.67373 | 2302 ft | 175 kts | 47° |
| 2026-05-05 14:55 | 55.75095 | -4.65806 | 2304 ft | 177 kts | 47° |
| 2026-05-05 14:55 | 55.75941 | -4.64242 | 2304 ft | 176 kts | 47° |
| 2026-05-05 14:55 | 55.76784 | -4.62681 | 2305 ft | 174 kts | 47° |
| 2026-05-05 14:56 | 55.77628 | -4.61119 | 2304 ft | 175 kts | 47° |
| 2026-05-05 14:56 | 55.78468 | -4.59561 | 2260 ft | 178 kts | 47° |
| 2026-05-05 14:56 | 55.79317 | -4.57988 | 2095 ft | 176 kts | 47° |
| 2026-05-05 14:56 | 55.80156 | -4.56429 | 1866 ft | 173 kts | 46° |
| 2026-05-05 14:57 | 55.80982 | -4.54896 | 1634 ft | 167 kts | 46° |
| 2026-05-05 14:57 | 55.81749 | -4.53471 | 1426 ft | 152 kts | 46° |
| 2026-05-05 14:57 | 55.82444 | -4.52180 | 1220 ft | 139 kts | 49° |
| 2026-05-05 14:57 | 55.83089 | -4.50980 | 1033 ft | 130 kts | 50° |
| 2026-05-05 14:58 | 55.83713 | -4.49814 | 846 ft | 128 kts | 51° |
| 2026-05-05 14:58 | 55.84328 | -4.48629 | 692 ft | 131 kts | 47° |
| 2026-05-05 14:58 | 55.84962 | -4.47528 | 537 ft | 130 kts | 49° |
| 2026-05-05 14:58 | 55.85576 | -4.46352 | 311 ft | 128 kts | 50° |
| 2026-05-05 14:59 | 55.86189 | -4.45208 | 127 ft | 126 kts | 50° |
| 2026-05-05 14:59 | 55.86774 | -4.44102 | 38 ft | 117 kts | 47° |
| 2026-05-05 14:59 | 55.87154 | -4.43395 | 38 ft | 39 kts | 46° |
| 2026-05-05 14:59 | 55.87206 | -4.43118 | 31 ft | 23 kts | 91° |
| 2026-05-05 15:00 | 55.87205 | -4.42844 | 32 ft | 20 kts | 90° |
| 2026-05-05 15:00 | 55.87203 | -4.42762 | 32 ft | 8 kts | 100° |
| 2026-05-05 15:00 | 55.87146 | -4.42747 | 33 ft | 6 kts | 194° |
| 2026-05-05 15:00 | 55.87108 | -4.42768 | 32 ft | 5 kts | 198° |
| 2026-05-05 15:01 | 55.87079 | -4.42785 | 33 ft | 4 kts | 199° |
| 2026-05-05 15:01 | 55.87022 | -4.42824 | 33 ft | 14 kts | 202° |
| 2026-05-05 15:01 | 55.86934 | -4.42897 | 33 ft | 13 kts | 206° |
| 2026-05-05 15:01 | 55.86854 | -4.42968 | 33 ft | 12 kts | 206° |
| 2026-05-05 15:02 | 55.86781 | -4.43029 | 33 ft | 10 kts | 210° |
| 2026-05-05 15:02 | 55.86753 | -4.43060 | 33 ft | 0 kts | 212° |